This is the latest recevied weather packets stored in our database for station/object WD9EKA. If no packets are shown the sender has not sent any weather packets the latest 10 day(s).
| Time | Temp. | Humidity | Pressure | Rain* | Wind** | Luminosity | Snow |
|---|---|---|---|---|---|---|---|
| 1777761707 | 13.89° C | 39% | 1013.7 hPa | 0 mm | - | - | - |
| 1777761393 | 13.89° C | 41% | 1013.5 hPa | 0 mm | - | - | - |
| 1777761083 | 13.89° C | 40% | 1013.3 hPa | 0 mm | - | - | - |
| 1777760764 | 13.33° C | 41% | 1013.5 hPa | 0 mm | - | - | - |
| 1777760443 | 13.33° C | 40% | 1013.3 hPa | 0 mm | - | - | - |
| 1777759806 | 13.33° C | 40% | 1013.4 hPa | 0 mm | - | - | - |
| 1777759163 | 12.78° C | 42% | 1013.5 hPa | 0 mm | - | - | - |
| 1777758844 | 13.89° C | 39% | 1013.3 hPa | 0 mm | - | - | - |
| 1777758523 | 13.89° C | 38% | 1013.6 hPa | 0 mm | - | - | - |
| 1777758203 | 13.33° C | 40% | 1013.5 hPa | 0 mm | - | - | - |
| 1777757884 | 12.78° C | 41% | 1013.4 hPa | 0 mm | - | - | - |
| 1777757563 | 12.78° C | 41% | 1013.5 hPa | 0 mm | - | - | - |
| 1777757243 | 13.33° C | 38% | 1013.5 hPa | 0 mm | - | - | - |
| 1777756925 | 12.78° C | 41% | 1013.5 hPa | 0 mm | - | - | - |
| 1777756593 | 12.78° C | 40% | 1013.6 hPa | 0 mm | - | - | - |
| 1777756267 | 12.78° C | 39% | 1013.5 hPa | 0 mm | - | - | - |
| 1777755947 | 12.78° C | 38% | 1013.5 hPa | 0 mm | - | - | - |
| 1777755627 | 12.78° C | 38% | 1013.4 hPa | 0 mm | - | - | - |
| 1777755307 | 12.22° C | 42% | 1013.7 hPa | 0 mm | - | - | - |
| 1777754987 | 12.78° C | 41% | 1013.7 hPa | 0 mm | - | - | - |
| 1777754667 | 12.22° C | 43% | 1013.6 hPa | 0 mm | - | - | - |
| 1777754347 | 12.78° C | 41% | 1013.6 hPa | 0 mm | - | - | - |
| 1777754027 | 12.22° C | 42% | 1013.7 hPa | 0 mm | - | - | - |
| 1777753707 | 12.22° C | 39% | 1013.8 hPa | 0 mm | - | - | - |
| 1777753387 | 12.78° C | 36% | 1013.7 hPa | 0 mm | - | - | - |
* Rain latest hour (hover to see other rain measurements)
** Current wind speed in m/s (hover to see current wind gust speed)